Portada
METAR-TAF:

METAR-TAF

Aeroports :

Jammu, Índia

latitud: 32-41-21N, longitud: 74-50-15E, altitud: 314 m

METAR: manca

Hora: 16:54 (11:24 UTC)

Pronòstic

L'informe es va fer fa 7 hores i 54 minuts, a les 03:30 UTC
Pronòstic vàlid del 21 a les 00 UTC al 21 a les 18 UTC
Vent 2 kt amb direcció variable
Visibilitat: 5000 m
Escasses núvols a una alçada de 2500 ft
Núvols disperses a una alçada de 8000 ft
Cel ennuvolat a una alçada de 20000 ft
boirina
Evolucionant progressivament
l' 21 a les 07 UTC al 21 a les 10 UTC
Visibilitat: 5000 m
Núvols disperses a una alçada de 2500 ft
Cel ennuvolat a una alçada de 8000 ft
calitja
Temporalment
l' 21 a les 09 UTC al 21 a les 12 UTC
Vent 5 kt del Oest/Sud-Oest
Visibilitat: 4000 m
calitja

TAF: VIJU 210330Z 2100/2118 VRB02KT 5000 BR FEW025 SCT080 BKN200 BECMG 2107/2110 5000 HZ SCT025 BKN080 TEMPO 2109/2112 25005KT 4000 HZ

Observacions i pronòstics meteorològics de més de 4000 aeroports (METAR i TAF).

Les estacions disponibles són els punts grocs i vermells al mapa.

Posi el ratolí al punt desitjat per veure el nom de l'estació.

Feu clic per veure les observacions i els pronòstics meteorològics.

Per canviar el mapa: feu clic els botons verds amb una creu de color negre per apropar; al botó verd amb un guió per allunyar la imatge; o en les fletxes verdes per a mapes adjacents.


METAR-TAF: